Time;durP1;ratioP1;P1;durP2;ratioP2;P2;SDS_P1;SDS_P2;PMS_P1;PMS_P2;Temp;Humidity;BMP_temperature;BMP_pressure;BME280_temperature;BME280_humidity;BME280_pressure;Samples;Min_cycle;Max_cycle;Signal;HPM_P1;HPM_P2
2021/12/24 00:00:47;;;;;;;163.13;39.80;;;5.40;99.90;;;;;;4941429;28;20490;-48
2021/12/24 00:03:13;;;;;;;147.63;37.13;;;5.40;99.90;;;;;;4945720;28;20051;-50
2021/12/24 00:05:40;;;;;;;157.55;37.25;;;5.50;99.90;;;;;;4946060;28;20055;-47
2021/12/24 00:08:06;;;;;;;151.05;39.25;;;5.50;99.90;;;;;;4947001;28;20058;-47
2021/12/24 00:10:33;;;;;;;149.80;37.45;;;5.50;99.90;;;;;;4928730;29;20066;-47
2021/12/24 00:13:08;;;;;;;137.90;37.90;;;5.50;99.90;;;;;;4928244;29;20054;-48
2021/12/24 00:18:13;;;;;;;212.77;45.25;;;5.60;99.90;;;;;;4933479;28;20067;-47
2021/12/24 00:36:56;;;;;;;441.02;58.78;;;5.60;99.90;;;;;;4944382;28;20054;-46
2021/12/24 00:39:22;;;;;;;262.70;44.70;;;5.70;99.90;;;;;;4945930;28;20051;-47
2021/12/24 00:41:48;;;;;;;297.83;49.28;;;5.70;99.90;;;;;;4912411;28;20065;-47
2021/12/24 00:44:14;;;;;;;263.23;45.35;;;5.80;99.90;;;;;;4945050;28;20117;-47
2021/12/24 00:46:39;;;;;;;184.60;39.47;;;5.80;99.90;;;;;;4927434;28;20050;-50
2021/12/24 00:49:05;;;;;;;220.82;41.03;;;5.80;99.90;;;;;;4928289;29;20059;-47
2021/12/24 00:51:43;;;;;;;274.83;44.30;;;5.70;99.90;;;;;;4946640;28;20178;-47
2021/12/24 00:56:54;;;;;;;211.77;40.03;;;5.90;99.90;;;;;;4926449;29;20055;-47
2021/12/24 00:59:20;;;;;;;225.73;42.45;;;5.90;99.90;;;;;;4926043;28;20047;-46
2021/12/24 01:01:46;;;;;;;148.65;34.22;;;5.90;99.90;;;;;;4945937;28;20047;-47
2021/12/24 01:04:12;;;;;;;157.60;33.80;;;5.90;99.90;;;;;;4926817;29;20138;-47
2021/12/24 01:06:37;;;;;;;165.43;35.00;;;6.00;99.90;;;;;;4924319;29;20056;-46
2021/12/24 01:09:04;;;;;;;126.55;30.98;;;5.90;99.90;;;;;;4922942;28;20093;-47
2021/12/24 01:11:30;;;;;;;93.10;26.27;;;5.90;99.90;;;;;;4945775;28;20059;-46
2021/12/24 01:13:59;;;;;;;70.15;23.98;;;6.00;99.90;;;;;;4945794;28;20110;-47
2021/12/24 01:16:32;;;;;;;113.13;28.10;;;6.10;99.90;;;;;;4945486;28;20545;-46
2021/12/24 01:19:11;;;;;;;86.90;24.75;;;6.00;99.90;;;;;;4946254;28;20059;-47
2021/12/24 01:24:23;;;;;;;55.78;20.90;;;6.00;99.90;;;;;;4945369;28;20066;-47
2021/12/24 01:40:26;;;;;;;69.90;20.00;;;6.20;99.90;;;;;;4936303;28;20067;-49
2021/12/24 01:42:54;;;;;;;67.57;19.92;;;6.20;99.90;;;;;;4944164;28;20153;-47
2021/12/24 01:45:32;;;;;;;59.17;17.88;;;6.20;99.90;;;;;;4944637;28;20047;-48
2021/12/24 01:48:06;;;;;;;58.67;17.95;;;6.20;99.90;;;;;;4946198;28;20575;-47
2021/12/24 01:50:34;;;;;;;72.40;20.45;;;6.30;99.90;;;;;;4925355;28;20538;-47
2021/12/24 01:53:02;;;;;;;58.60;17.98;;;6.30;99.90;;;;;;4943507;28;20078;-48
2021/12/24 01:55:27;;;;;;;65.70;19.15;;;6.40;99.90;;;;;;4926102;29;20055;-46
2021/12/24 01:57:53;;;;;;;64.13;19.70;;;6.40;99.90;;;;;;4944243;28;20043;-46
2021/12/24 02:00:23;;;;;;;79.25;20.83;;;6.40;99.90;;;;;;4944927;28;20051;-45
2021/12/24 02:02:56;;;;;;;74.80;20.67;;;6.60;99.90;;;;;;4938621;28;20051;-49
2021/12/24 02:05:23;;;;;;;69.50;20.10;;;6.60;99.90;;;;;;4939579;28;20069;-47
2021/12/24 02:07:50;;;;;;;81.53;21.48;;;6.60;99.90;;;;;;4944905;28;20059;-47
2021/12/24 02:10:18;;;;;;;66.93;20.00;;;6.70;99.90;;;;;;4944399;28;20490;-47
2021/12/24 02:12:46;;;;;;;67.80;19.58;;;6.60;99.90;;;;;;4924565;28;20061;-47
2021/12/24 02:15:24;;;;;;;66.75;19.80;;;6.70;99.90;;;;;;4944374;28;20063;-49
2021/12/24 02:28:38;;;;;;;72.03;22.73;;;7.00;99.90;;;;;;4925567;29;20058;-49
2021/12/24 02:31:06;;;;;;;73.45;23.20;;;7.10;99.90;;;;;;4925113;29;20463;-49
2021/12/24 02:33:33;;;;;;;75.32;23.58;;;7.10;99.90;;;;;;4943325;28;20113;-50
2021/12/24 02:35:58;;;;;;;98.00;28.15;;;7.20;99.90;;;;;;4927918;29;20070;-48
2021/12/24 02:38:25;;;;;;;96.22;27.15;;;7.20;99.90;;;;;;4944909;28;20043;-49
2021/12/24 02:40:51;;;;;;;129.50;31.30;;;7.30;99.90;;;;;;4926546;29;20047;-47
2021/12/24 02:43:20;;;;;;;122.57;33.13;;;7.30;99.90;;;;;;4929455;28;20089;-47
2021/12/24 02:45:48;;;;;;;128.77;33.70;;;7.30;99.90;;;;;;4945269;28;20059;-47
2021/12/24 02:53:57;;;;;;;129.52;31.42;;;7.40;99.90;;;;;;4943052;28;20051;-47
2021/12/24 02:56:25;;;;;;;174.55;32.65;;;7.40;99.90;;;;;;4925491;29;20094;-46
2021/12/24 02:58:52;;;;;;;125.55;31.23;;;7.40;99.90;;;;;;4934720;28;20513;-47
2021/12/24 03:01:22;;;;;;;115.60;30.75;;;7.40;99.90;;;;;;4942912;28;20051;-48
2021/12/24 03:03:48;;;;;;;129.18;32.60;;;7.40;99.90;;;;;;4935365;28;20462;-47
2021/12/24 03:06:19;;;;;;;113.80;31.25;;;7.40;99.90;;;;;;4943156;28;20398;-48
2021/12/24 03:08:46;;;;;;;119.38;32.65;;;7.50;99.90;;;;;;4918427;29;20058;-46
2021/12/24 03:11:12;;;;;;;105.90;33.05;;;7.40;99.90;;;;;;4941372;28;20051;-48
2021/12/24 03:13:40;;;;;;;107.28;31.08;;;7.50;99.90;;;;;;4921384;29;20503;-48
2021/12/24 03:16:06;;;;;;;107.40;32.53;;;7.50;99.90;;;;;;4922100;28;20316;-47
2021/12/24 03:18:34;;;;;;;94.22;30.48;;;7.50;99.90;;;;;;4926366;29;20527;-48
2021/12/24 03:21:06;;;;;;;99.43;30.95;;;7.50;99.90;;;;;;4943504;28;20304;-48
2021/12/24 03:23:36;;;;;;;86.78;29.95;;;7.50;99.90;;;;;;4924399;28;20066;-46
2021/12/24 03:26:04;;;;;;;94.13;31.30;;;7.50;99.90;;;;;;4942796;28;20434;-46
2021/12/24 03:28:29;;;;;;;89.40;30.45;;;7.50;99.90;;;;;;4943441;28;20760;-47
2021/12/24 03:31:02;;;;;;;91.38;31.92;;;7.50;99.90;;;;;;4926096;29;20071;-47
2021/12/24 03:33:27;;;;;;;109.07;33.70;;;7.60;99.90;;;;;;4918858;29;20441;-49
2021/12/24 03:35:53;;;;;;;112.38;33.08;;;7.60;99.90;;;;;;4939452;28;20593;-47
2021/12/24 03:38:19;;;;;;;99.32;34.17;;;7.60;99.90;;;;;;4938091;28;20054;-47
2021/12/24 03:40:45;;;;;;;99.65;33.00;;;7.60;99.90;;;;;;4943453;28;20055;-46
2021/12/24 03:43:11;;;;;;;103.22;35.47;;;7.60;99.90;;;;;;4938531;28;20039;-48
2021/12/24 03:45:59;;;;;;;102.03;34.33;;;7.60;99.90;;;;;;4942503;28;20050;-46
2021/12/24 03:56:32;;;;;;;124.85;37.97;;;7.60;99.90;;;;;;4942756;28;20066;-47
2021/12/24 03:58:58;;;;;;;113.10;37.83;;;7.60;99.90;;;;;;4945762;28;20130;-47
2021/12/24 04:01:24;;;;;;;97.25;36.40;;;7.60;99.90;;;;;;4938876;28;20051;-47
2021/12/24 04:03:51;;;;;;;94.10;34.40;;;7.60;99.90;;;;;;4934509;28;20059;-48
2021/12/24 04:06:16;;;;;;;131.23;39.38;;;7.60;99.90;;;;;;4941197;28;20051;-48
2021/12/24 04:08:42;;;;;;;178.68;41.53;;;7.60;99.90;;;;;;4942956;28;20055;-48
2021/12/24 04:11:08;;;;;;;93.72;34.75;;;7.60;99.90;;;;;;4943595;28;20525;-47
2021/12/24 04:13:34;;;;;;;101.35;34.03;;;7.70;99.90;;;;;;4944550;28;20059;-47
2021/12/24 04:16:01;;;;;;;111.22;34.53;;;7.60;99.90;;;;;;4911678;28;20059;-47
2021/12/24 04:26:31;;;;;;;119.50;36.63;;;7.60;99.90;;;;;;4943116;28;20059;-47
2021/12/24 04:28:58;;;;;;;95.60;33.97;;;7.50;99.90;;;;;;4945970;28;20742;-47
2021/12/24 04:31:52;;;;;;;86.53;34.10;;;7.60;99.90;;;;;;4946949;28;20406;-47
2021/12/24 04:34:12;;;;;;;85.25;32.22;;;7.70;99.90;;;;;;4938188;28;20660;-48
2021/12/24 05:03:34;;;;;;;87.22;31.85;;;7.70;99.90;;;;;;4833309;29;20068;-48
2021/12/24 05:06:14;;;;;;;78.70;29.02;;;7.70;99.90;;;;;;4823559;29;20122;-50
2021/12/24 05:09:09;;;;;;;77.93;29.08;;;7.70;99.90;;;;;;4815604;29;20054;-48
2021/12/24 05:11:26;;;;;;;75.90;28.48;;;7.60;99.90;;;;;;4830934;29;20050;-48
2021/12/24 05:13:53;;;;;;;76.53;28.20;;;7.70;99.90;;;;;;4830528;29;20088;-47
2021/12/24 05:16:26;;;;;;;90.85;28.75;;;7.60;99.90;;;;;;4814353;29;20582;-47
2021/12/24 05:21:36;;;;;;;72.80;25.45;;;7.70;99.90;;;;;;4940158;28;20055;-47
2021/12/24 05:24:20;;;;;;;63.15;24.35;;;7.60;99.90;;;;;;4927733;28;20051;-47
2021/12/24 05:26:55;;;;;;;63.00;24.20;;;7.70;99.90;;;;;;4933656;28;20059;-48
2021/12/24 05:29:21;;;;;;;69.78;23.10;;;7.60;99.90;;;;;;4944273;28;20054;-48
2021/12/24 05:31:48;;;;;;;66.45;22.48;;;7.70;99.90;;;;;;4945346;28;20514;-50
2021/12/24 05:34:17;;;;;;;60.38;21.00;;;7.60;99.90;;;;;;4932283;29;20558;-49
2021/12/24 05:36:49;;;;;;;56.08;20.85;;;7.70;99.90;;;;;;4928350;28;20394;-46
2021/12/24 05:39:17;;;;;;;57.45;20.05;;;7.60;99.90;;;;;;4945574;28;20085;-48
2021/12/24 05:41:44;;;;;;;59.55;19.58;;;7.60;99.90;;;;;;4927122;29;20134;-47
2021/12/24 05:44:15;;;;;;;59.70;18.17;;;7.50;99.90;;;;;;4926564;29;20186;-47
2021/12/24 05:46:40;;;;;;;55.05;19.35;;;7.60;99.90;;;;;;4926842;29;20115;-49
2021/12/24 05:49:06;;;;;;;51.28;16.40;;;7.60;99.90;;;;;;4926886;29;20047;-48
2021/12/24 05:51:33;;;;;;;49.17;16.65;;;7.50;99.90;;;;;;4944679;28;20055;-48
2021/12/24 05:54:00;;;;;;;58.92;16.52;;;7.60;99.90;;;;;;4941379;28;20102;-47
2021/12/24 05:56:26;;;;;;;51.80;16.48;;;7.50;99.90;;;;;;4925558;29;20063;-46
2021/12/24 05:58:51;;;;;;;52.33;16.48;;;7.60;99.90;;;;;;4943821;28;20167;-47
2021/12/24 06:01:17;;;;;;;38.65;14.25;;;7.60;99.90;;;;;;4937635;28;20055;-50
2021/12/24 06:03:43;;;;;;;40.97;14.68;;;7.50;99.90;;;;;;4943459;28;20051;-47
2021/12/24 06:06:09;;;;;;;44.03;14.90;;;7.60;99.90;;;;;;4940751;28;20062;-47
2021/12/24 06:08:34;;;;;;;45.30;14.88;;;7.60;99.90;;;;;;4945692;28;20051;-48
2021/12/24 06:11:00;;;;;;;46.45;14.65;;;7.50;99.90;;;;;;4945383;28;20055;-49
2021/12/24 06:13:28;;;;;;;47.45;16.48;;;7.60;99.90;;;;;;4946830;28;20063;-50
2021/12/24 06:15:54;;;;;;;42.75;13.68;;;7.50;99.90;;;;;;4927671;29;20142;-50
2021/12/24 06:18:24;;;;;;;50.45;15.50;;;7.60;99.90;;;;;;4944175;28;20057;-51
2021/12/24 06:20:52;;;;;;;42.28;13.60;;;7.50;99.90;;;;;;4927042;29;20082;-47
2021/12/24 06:23:20;;;;;;;42.38;12.45;;;7.50;99.90;;;;;;4943867;28;20047;-47
2021/12/24 06:25:46;;;;;;;40.15;12.65;;;7.60;99.90;;;;;;4943278;28;20773;-46
2021/12/24 06:28:12;;;;;;;44.20;14.07;;;7.60;99.90;;;;;;4943868;28;20510;-49
2021/12/24 06:30:39;;;;;;;44.92;13.18;;;7.50;99.90;;;;;;4945425;28;20061;-46
2021/12/24 06:33:04;;;;;;;39.75;12.00;;;7.50;99.90;;;;;;4943307;28;20091;-47
2021/12/24 06:35:30;;;;;;;44.92;12.70;;;7.50;99.90;;;;;;4940865;28;20130;-47
2021/12/24 06:37:56;;;;;;;32.47;11.77;;;7.60;99.90;;;;;;4943018;28;20054;-47
2021/12/24 06:40:24;;;;;;;39.17;12.30;;;7.50;99.90;;;;;;4942684;28;20055;-48
2021/12/24 06:42:49;;;;;;;35.38;12.95;;;7.50;99.90;;;;;;4924399;28;20498;-47
2021/12/24 06:45:21;;;;;;;43.88;11.63;;;7.50;99.90;;;;;;4925964;28;20062;-48
2021/12/24 06:47:47;;;;;;;40.40;12.27;;;7.50;99.90;;;;;;4913762;29;20517;-46
2021/12/24 06:50:13;;;;;;;40.60;11.50;;;7.50;99.90;;;;;;4926176;29;20055;-47
2021/12/24 06:52:39;;;;;;;45.55;11.77;;;7.50;99.90;;;;;;4943897;28;20063;-48
2021/12/24 06:55:05;;;;;;;36.92;12.02;;;7.50;99.90;;;;;;4926649;29;20047;-47
2021/12/24 06:57:31;;;;;;;39.35;12.80;;;7.50;99.90;;;;;;4932802;28;20529;-47
2021/12/24 06:59:57;;;;;;;35.13;11.80;;;7.60;99.90;;;;;;4910385;29;20051;-48
2021/12/24 07:02:22;;;;;;;42.70;12.30;;;7.50;99.90;;;;;;4944162;29;20055;-47
2021/12/24 07:04:48;;;;;;;32.13;10.70;;;7.60;99.90;;;;;;4913612;29;20129;-47
2021/12/24 07:07:45;;;;;;;39.10;11.40;;;7.60;99.90;;;;;;4945153;29;20558;-46
2021/12/24 07:10:11;;;;;;;39.78;11.65;;;7.50;99.90;;;;;;4936274;28;20043;-46
2021/12/24 07:12:37;;;;;;;33.10;10.93;;;7.50;99.90;;;;;;4946722;28;20108;-46
2021/12/24 07:15:03;;;;;;;28.67;11.15;;;7.50;99.90;;;;;;4949747;29;20091;-47
2021/12/24 07:17:29;;;;;;;30.52;10.73;;;7.50;99.90;;;;;;4925744;29;20566;-49
2021/12/24 07:19:55;;;;;;;35.83;11.77;;;7.50;99.90;;;;;;4947108;28;20125;-47
2021/12/24 07:22:30;;;;;;;33.85;9.40;;;7.50;99.90;;;;;;4930784;29;20062;-47
2021/12/24 07:24:55;;;;;;;36.70;11.20;;;7.40;99.90;;;;;;4954191;28;20073;-49
2021/12/24 07:27:21;;;;;;;30.67;10.02;;;7.40;99.90;;;;;;4946622;28;20516;-49
2021/12/24 07:29:48;;;;;;;34.97;8.50;;;7.40;99.90;;;;;;4946877;29;20158;-48
2021/12/24 07:32:14;;;;;;;29.20;9.07;;;7.40;99.90;;;;;;4928515;29;20058;-49
2021/12/24 07:34:40;;;;;;;23.23;7.65;;;7.40;99.90;;;;;;4925792;29;20051;-46
2021/12/24 07:37:06;;;;;;;21.13;7.45;;;7.40;99.90;;;;;;4922683;28;20151;-47
2021/12/24 07:39:31;;;;;;;25.40;6.70;;;7.50;99.90;;;;;;4925797;28;20054;-46
2021/12/24 07:41:57;;;;;;;27.75;7.50;;;7.40;99.90;;;;;;4942364;28;20061;-47
2021/12/24 07:44:23;;;;;;;27.85;8.25;;;7.50;99.90;;;;;;4945294;29;20047;-46
2021/12/24 07:46:53;;;;;;;29.13;7.57;;;7.50;99.90;;;;;;4929567;28;20063;-49
2021/12/24 07:52:00;;;;;;;32.67;7.88;;;7.50;99.90;;;;;;4933684;29;20086;-47
2021/12/24 07:54:27;;;;;;;34.97;8.88;;;7.50;99.90;;;;;;4950581;28;20051;-49
2021/12/24 07:56:53;;;;;;;31.95;8.82;;;7.50;99.90;;;;;;4948633;28;20445;-48
2021/12/24 07:59:19;;;;;;;31.67;7.60;;;7.50;99.90;;;;;;4947911;28;20174;-47
2021/12/24 08:01:47;;;;;;;32.58;8.82;;;7.50;99.90;;;;;;4934757;28;20451;-46
2021/12/24 08:04:14;;;;;;;31.63;8.40;;;7.60;99.90;;;;;;4943984;28;20057;-48
2021/12/24 08:06:41;;;;;;;39.58;9.88;;;7.50;99.90;;;;;;4946031;28;20055;-47
2021/12/24 08:09:07;;;;;;;32.42;8.85;;;7.60;99.90;;;;;;4916011;28;20645;-47
2021/12/24 08:11:34;;;;;;;39.67;8.65;;;7.50;99.90;;;;;;4947546;28;20553;-48
2021/12/24 08:14:01;;;;;;;32.88;8.88;;;7.50;99.90;;;;;;4948138;28;20087;-47
2021/12/24 08:16:29;;;;;;;44.22;10.32;;;7.60;99.90;;;;;;4926316;29;20055;-47
2021/12/24 08:18:56;;;;;;;40.15;8.90;;;7.60;99.90;;;;;;4946296;28;20126;-47
2021/12/24 08:25:06;;;;;;;31.63;8.70;;;7.60;99.90;;;;;;4944962;28;20050;-47
2021/12/24 08:27:34;;;;;;;35.83;8.80;;;7.60;99.90;;;;;;4927875;29;20063;-46
2021/12/24 08:30:00;;;;;;;36.97;8.88;;;7.60;99.90;;;;;;4946605;28;20051;-47
2021/12/24 08:32:26;;;;;;;38.70;8.90;;;7.50;99.90;;;;;;4945935;29;20090;-49
2021/12/24 08:34:53;;;;;;;34.05;8.35;;;7.60;99.90;;;;;;4931258;28;20051;-47
2021/12/24 08:37:19;;;;;;;36.25;8.02;;;7.60;99.90;;;;;;4947904;28;20797;-50
2021/12/24 08:39:45;;;;;;;36.10;7.78;;;7.60;99.90;;;;;;4945392;28;20055;-50
2021/12/24 08:42:11;;;;;;;37.00;8.35;;;7.60;99.90;;;;;;4947077;28;20043;-50
2021/12/24 08:44:37;;;;;;;30.08;8.00;;;7.60;99.90;;;;;;4923936;28;20509;-47
2021/12/24 08:47:04;;;;;;;30.70;7.25;;;7.60;99.90;;;;;;4929401;29;20599;-47
2021/12/24 08:49:31;;;;;;;35.15;8.00;;;7.60;99.90;;;;;;4946266;28;20688;-47
2021/12/24 08:51:58;;;;;;;27.85;8.00;;;7.60;99.90;;;;;;4939303;28;20407;-47
2021/12/24 08:54:25;;;;;;;37.10;10.48;;;7.60;99.90;;;;;;4941209;28;20072;-46
2021/12/24 08:56:53;;;;;;;31.52;7.85;;;7.70;99.90;;;;;;4929586;29;20082;-47
2021/12/24 08:59:19;;;;;;;33.17;9.98;;;7.60;99.90;;;;;;4944942;28;20062;-47
2021/12/24 09:01:45;;;;;;;38.15;10.70;;;7.70;99.90;;;;;;4935703;28;20070;-48
2021/12/24 09:04:12;;;;;;;39.65;9.50;;;7.60;99.90;;;;;;4945681;28;20106;-47
2021/12/24 09:06:38;;;;;;;40.83;8.75;;;7.70;99.90;;;;;;4939987;28;20055;-47
2021/12/24 09:09:06;;;;;;;31.70;9.30;;;7.70;99.90;;;;;;4923357;28;20063;-48
2021/12/24 09:11:38;;;;;;;29.88;9.00;;;7.70;99.90;;;;;;4925553;29;20055;-46
2021/12/24 09:14:04;;;;;;;39.92;9.05;;;7.70;99.90;;;;;;4945330;28;20055;-47
2021/12/24 09:16:37;;;;;;;37.50;8.48;;;7.70;99.90;;;;;;4947132;28;20039;-48
2021/12/24 09:19:12;;;;;;;49.03;9.27;;;7.70;99.90;;;;;;4926453;28;20047;-48
2021/12/24 09:21:38;;;;;;;38.35;8.35;;;7.70;99.90;;;;;;4927997;29;20538;-47
2021/12/24 09:24:08;;;;;;;41.47;9.07;;;7.70;99.90;;;;;;4944463;28;20047;-47
2021/12/24 09:26:38;;;;;;;29.17;7.53;;;7.70;99.90;;;;;;4944397;28;20118;-49
2021/12/24 09:29:09;;;;;;;41.92;7.78;;;7.80;99.90;;;;;;4943752;28;20513;-50
2021/12/24 09:31:36;;;;;;;30.17;8.25;;;7.70;99.90;;;;;;4927390;29;20051;-48
2021/12/24 09:34:03;;;;;;;32.15;8.23;;;7.70;99.90;;;;;;4950357;28;20039;-49
2021/12/24 09:36:29;;;;;;;43.60;8.25;;;7.70;99.90;;;;;;4929301;29;20059;-48
2021/12/24 09:39:01;;;;;;;37.60;7.93;;;7.80;99.90;;;;;;4946701;28;20625;-48
2021/12/24 09:41:27;;;;;;;38.45;7.90;;;7.80;99.90;;;;;;4947639;29;20114;-50
2021/12/24 09:43:56;;;;;;;38.15;8.73;;;7.80;99.90;;;;;;4948540;29;20065;-48
2021/12/24 09:46:22;;;;;;;43.03;9.90;;;7.80;99.90;;;;;;4947796;29;20135;-48
2021/12/24 09:48:48;;;;;;;32.65;7.68;;;7.80;99.90;;;;;;4945967;29;20051;-47
2021/12/24 09:51:14;;;;;;;35.92;9.07;;;7.90;99.90;;;;;;4945846;29;20089;-48
2021/12/24 09:53:40;;;;;;;40.72;9.02;;;7.90;99.90;;;;;;4925605;29;20055;-48
2021/12/24 09:56:06;;;;;;;38.13;9.23;;;7.90;99.90;;;;;;4943943;28;20047;-48
2021/12/24 09:58:33;;;;;;;30.52;8.70;;;7.90;99.90;;;;;;4942065;28;20178;-48
2021/12/24 10:00:59;;;;;;;39.92;9.35;;;7.90;99.90;;;;;;4943823;28;20052;-47
2021/12/24 10:03:36;;;;;;;37.20;8.35;;;7.90;99.90;;;;;;4941795;28;20051;-47
2021/12/24 10:06:03;;;;;;;44.88;9.45;;;7.90;99.90;;;;;;4941367;28;20453;-48
2021/12/24 10:08:32;;;;;;;37.10;8.77;;;7.90;99.90;;;;;;4939573;28;20502;-47
2021/12/24 10:11:10;;;;;;;38.97;8.52;;;7.90;99.90;;;;;;4925749;28;20110;-48
2021/12/24 10:13:44;;;;;;;31.75;9.10;;;7.90;99.90;;;;;;4943936;28;20059;-49
2021/12/24 10:16:22;;;;;;;34.00;8.18;;;7.80;99.90;;;;;;4944750;28;20080;-49
2021/12/24 10:18:53;;;;;;;25.40;7.28;;;7.90;99.90;;;;;;4924732;29;20079;-48
2021/12/24 10:21:25;;;;;;;15.68;5.25;;;7.90;99.90;;;;;;4926360;29;20065;-48
2021/12/24 10:24:02;;;;;;;15.13;5.20;;;7.90;99.90;;;;;;4942589;28;20047;-48
2021/12/24 10:26:30;;;;;;;12.88;4.82;;;7.80;99.90;;;;;;4925071;29;20322;-48
2021/12/24 10:29:02;;;;;;;20.25;5.40;;;7.80;99.90;;;;;;4944457;28;20054;-47
2021/12/24 10:31:49;;;;;;;21.45;4.97;;;7.80;99.90;;;;;;4945379;28;20054;-47
2021/12/24 10:34:33;;;;;;;14.93;4.90;;;7.80;99.90;;;;;;4949852;28;20110;-47
2021/12/24 10:37:02;;;;;;;5.38;2.33;;;7.80;99.90;;;;;;4942833;28;20051;-49
2021/12/24 10:39:49;;;;;;;2.17;1.55;;;7.50;99.90;;;;;;4944147;28;20058;-48
2021/12/24 10:42:22;;;;;;;1.65;1.35;;;7.20;99.90;;;;;;4952468;28;20057;-47
2021/12/24 10:44:51;;;;;;;4.93;1.92;;;6.90;99.90;;;;;;4962997;28;20062;-49
2021/12/24 10:47:25;;;;;;;2.67;2.17;;;6.80;99.90;;;;;;4951592;28;20047;-47
2021/12/24 10:50:37;;;;;;;13.98;3.30;;;6.70;99.90;;;;;;4943301;28;20051;-47
2021/12/24 10:53:32;;;;;;;4.70;2.70;;;6.70;99.90;;;;;;4866680;29;20531;-47
2021/12/24 10:55:58;;;;;;;4.15;2.53;;;6.60;99.90;;;;;;4867477;29;20056;-49
2021/12/24 10:58:34;;;;;;;2.80;1.80;;;6.70;99.90;;;;;;4888296;29;20064;-48
2021/12/24 11:01:00;;;;;;;3.33;1.73;;;6.60;99.90;;;;;;4870322;29;20064;-49
2021/12/24 11:03:31;;;;;;;4.28;1.58;;;6.60;99.90;;;;;;4884673;29;20065;-47
2021/12/24 11:06:08;;;;;;;2.00;1.50;;;6.50;99.90;;;;;;4885602;29;20094;-48
2021/12/24 11:08:34;;;;;;;3.45;1.73;;;6.50;99.90;;;;;;4885443;29;20056;-47
2021/12/24 11:11:03;;;;;;;2.30;1.55;;;6.50;99.90;;;;;;4890348;29;20064;-47
2021/12/24 11:13:39;;;;;;;2.15;1.63;;;6.50;99.90;;;;;;4868754;29;20075;-48
2021/12/24 11:16:09;;;;;;;2.85;2.17;;;6.50;99.90;;;;;;4866927;29;20114;-50
2021/12/24 11:18:40;;;;;;;4.15;1.95;;;6.60;99.90;;;;;;4883328;29;20445;-49
2021/12/24 11:21:19;;;;;;;3.17;2.70;;;6.60;99.90;;;;;;4882852;29;20059;-47
2021/12/24 11:23:45;;;;;;;3.88;3.58;;;6.70;99.90;;;;;;4885903;29;20065;-49
2021/12/24 11:26:14;;;;;;;3.95;3.55;;;6.60;99.90;;;;;;4882831;29;20052;-47
2021/12/24 11:28:40;;;;;;;4.28;3.05;;;6.70;99.90;;;;;;4890369;29;20689;-48
2021/12/24 11:31:10;;;;;;;3.33;2.60;;;6.70;99.90;;;;;;4951049;28;20058;-47
2021/12/24 11:33:38;;;;;;;4.10;2.17;;;6.70;99.90;;;;;;4949480;28;20127;-48
2021/12/24 11:36:10;;;;;;;4.55;2.85;;;6.60;99.90;;;;;;4929270;28;20047;-47
2021/12/24 11:38:48;;;;;;;2.37;1.87;;;6.70;99.90;;;;;;4949083;29;20051;-49
2021/12/24 11:41:17;;;;;;;3.05;2.22;;;6.70;99.90;;;;;;4947655;28;20295;-47
2021/12/24 11:43:46;;;;;;;3.85;2.42;;;6.60;99.90;;;;;;4948270;28;20406;-50
2021/12/24 11:46:15;;;;;;;2.90;1.70;;;6.60;99.90;;;;;;4949803;28;20055;-47
2021/12/24 11:48:42;;;;;;;2.42;1.90;;;6.50;99.90;;;;;;4911118;29;20051;-48
2021/12/24 11:51:13;;;;;;;2.67;2.10;;;6.60;99.90;;;;;;4951572;28;20065;-49
2021/12/24 11:53:40;;;;;;;3.03;2.35;;;6.60;99.90;;;;;;4940777;28;20043;-48
2021/12/24 11:56:09;;;;;;;5.28;2.40;;;6.60;99.90;;;;;;4946026;28;20058;-50
2021/12/24 11:58:50;;;;;;;2.30;1.92;;;6.70;99.90;;;;;;4945709;28;20047;-47
2021/12/24 12:01:16;;;;;;;3.70;2.40;;;6.70;99.90;;;;;;4939715;28;20047;-47
2021/12/24 12:03:52;;;;;;;2.70;2.33;;;6.80;99.90;;;;;;4925034;28;20067;-47
2021/12/24 12:06:20;;;;;;;2.95;2.65;;;6.80;99.90;;;;;;4912913;29;20055;-48
2021/12/24 12:08:48;;;;;;;4.05;3.35;;;6.90;99.90;;;;;;4930302;29;20055;-50
2021/12/24 12:11:13;;;;;;;3.75;3.30;;;6.80;99.90;;;;;;4923651;29;20063;-51
2021/12/24 12:13:39;;;;;;;4.65;3.30;;;6.90;99.90;;;;;;4944750;28;20063;-51
2021/12/24 12:16:08;;;;;;;4.90;3.47;;;6.90;99.90;;;;;;4945165;28;20051;-50
2021/12/24 12:18:50;;;;;;;4.32;3.90;;;6.90;99.90;;;;;;4944809;28;20093;-48
2021/12/24 12:21:34;;;;;;;4.73;4.10;;;6.90;99.90;;;;;;4928277;29;20146;-47
2021/12/24 12:26:49;;;;;;;5.03;4.13;;;6.80;99.90;;;;;;4941173;29;20419;-48
2021/12/24 12:29:24;;;;;;;5.78;4.93;;;6.80;99.90;;;;;;4927687;29;20110;-50
2021/12/24 12:32:04;;;;;;;4.85;3.70;;;6.80;99.90;;;;;;4946170;28;20082;-50
2021/12/24 12:34:41;;;;;;;5.15;3.15;;;6.70;99.90;;;;;;4946139;28;20171;-51
2021/12/24 12:37:20;;;;;;;4.72;3.65;;;6.60;99.90;;;;;;4928003;29;20485;-48
2021/12/24 12:39:57;;;;;;;4.72;3.22;;;6.50;99.90;;;;;;4946610;29;20410;-47
2021/12/24 12:42:49;;;;;;;4.72;3.30;;;6.40;99.90;;;;;;4946860;29;20058;-48
2021/12/24 12:45:17;;;;;;;3.65;3.20;;;6.30;99.90;;;;;;4928823;29;20094;-49
2021/12/24 12:47:57;;;;;;;5.45;3.92;;;6.30;99.90;;;;;;4947420;29;20054;-48
2021/12/24 12:50:25;;;;;;;8.23;3.65;;;6.30;99.90;;;;;;4947625;29;20398;-47
2021/12/24 12:52:58;;;;;;;4.32;3.67;;;6.30;99.90;;;;;;4945954;29;20047;-47
2021/12/24 12:55:35;;;;;;;5.57;4.20;;;6.30;99.90;;;;;;4945131;29;20046;-48
2021/12/24 12:58:20;;;;;;;6.70;4.07;;;6.30;99.90;;;;;;4926246;28;20424;-48
2021/12/24 13:01:14;;;;;;;6.68;3.67;;;6.40;99.90;;;;;;4941498;28;20078;-48
2021/12/24 13:03:58;;;;;;;6.15;3.88;;;6.40;99.90;;;;;;4927512;29;20534;-49
2021/12/24 13:06:36;;;;;;;4.80;4.07;;;6.40;99.90;;;;;;4923814;29;20064;-49
2021/12/24 13:09:23;;;;;;;5.47;4.03;;;6.40;99.90;;;;;;4928504;29;20161;-48
2021/12/24 13:11:53;;;;;;;7.65;4.15;;;6.50;99.90;;;;;;4928108;29;20055;-51
2021/12/24 13:14:21;;;;;;;4.63;4.18;;;6.50;99.90;;;;;;4942449;28;20047;-48
2021/12/24 13:17:05;;;;;;;4.72;3.60;;;6.60;99.90;;;;;;4945675;28;20055;-50
2021/12/24 13:22:33;;;;;;;6.28;4.32;;;6.70;99.90;;;;;;4933643;28;20099;-51
2021/12/24 13:25:17;;;;;;;5.10;3.85;;;6.70;99.90;;;;;;4925779;29;20122;-47
2021/12/24 13:27:52;;;;;;;5.30;3.80;;;6.70;99.90;;;;;;4944499;28;20058;-51
2021/12/24 13:30:31;;;;;;;5.80;4.03;;;6.80;99.90;;;;;;4945463;28;20047;-49
2021/12/24 13:32:57;;;;;;;8.05;3.70;;;6.80;99.90;;;;;;4953291;28;20058;-49
2021/12/24 13:35:43;;;;;;;5.72;3.35;;;6.80;99.90;;;;;;4947024;28;20047;-46
2021/12/24 13:38:28;;;;;;;4.60;3.20;;;6.80;99.90;;;;;;4944125;28;20487;-47
2021/12/24 13:40:55;;;;;;;4.97;3.97;;;6.80;99.90;;;;;;4923071;28;20412;-47
2021/12/24 13:43:21;;;;;;;5.65;4.20;;;6.80;99.90;;;;;;4921594;29;20391;-47
2021/12/24 13:45:50;;;;;;;5.55;3.90;;;6.80;99.90;;;;;;4943024;28;20120;-47
2021/12/24 13:48:24;;;;;;;8.88;4.00;;;6.80;99.90;;;;;;4943491;28;20080;-47
2021/12/24 13:56:39;;;;;;;5.35;4.55;;;6.80;99.90;;;;;;4943832;29;20128;-46
2021/12/24 13:59:06;;;;;;;5.40;3.70;;;6.80;99.90;;;;;;4942073;28;20167;-48
2021/12/24 14:01:33;;;;;;;4.88;3.45;;;6.90;99.90;;;;;;4949886;28;20063;-46
2021/12/24 14:04:01;;;;;;;6.85;4.03;;;6.90;99.90;;;;;;4943495;28;20070;-47
2021/12/24 14:06:44;;;;;;;5.70;4.00;;;6.90;99.90;;;;;;4942772;28;20059;-46
2021/12/24 14:09:16;;;;;;;;;;;6.90;99.90;;;;;;4924715;29;20051;-46
2021/12/24 14:11:43;;;;;;;7.10;4.07;;;6.90;99.90;;;;;;4943235;28;19934;-49
2021/12/24 14:14:17;;;;;;;7.72;4.20;;;6.90;99.90;;;;;;4943604;28;20067;-47
2021/12/24 14:19:29;;;;;;;8.30;5.22;;;7.00;99.90;;;;;;4943807;28;20477;-47
2021/12/24 14:22:12;;;;;;;10.55;6.35;;;7.00;99.90;;;;;;4943816;28;20535;-48
2021/12/24 14:24:57;;;;;;;6.82;6.22;;;7.00;99.90;;;;;;4926688;28;20062;-47
2021/12/24 14:27:29;;;;;;;8.30;5.78;;;7.00;99.90;;;;;;4925622;29;20062;-46
2021/12/24 14:30:01;;;;;;;9.05;6.15;;;7.00;99.90;;;;;;4910337;29;20059;-47
2021/12/24 14:32:42;;;;;;;10.18;6.57;;;6.90;99.90;;;;;;4944254;28;20073;-48
2021/12/24 14:35:22;;;;;;;7.57;5.00;;;6.90;99.90;;;;;;4951514;28;20573;-50
2021/12/24 14:38:06;;;;;;;6.85;5.53;;;6.80;99.90;;;;;;4941101;28;20379;-47
2021/12/24 14:40:35;;;;;;;8.43;4.75;;;6.90;99.90;;;;;;4942504;28;20131;-47
2021/12/24 14:43:09;;;;;;;8.00;4.30;;;6.80;99.90;;;;;;4943972;28;20051;-50
2021/12/24 14:45:39;;;;;;;7.80;3.80;;;6.80;99.90;;;;;;4925764;28;20827;-49
2021/12/24 14:48:37;;;;;;;6.78;3.88;;;6.80;99.90;;;;;;4920456;29;20043;-47
2021/12/24 14:51:08;;;;;;;5.47;4.03;;;6.80;99.90;;;;;;4874935;29;20586;-46
2021/12/24 14:53:36;;;;;;;6.68;4.15;;;6.70;99.90;;;;;;4861104;29;20099;-51
2021/12/24 14:56:21;;;;;;;5.05;3.92;;;6.70;99.90;;;;;;4867884;29;20057;-47
2021/12/24 14:58:50;;;;;;;7.57;4.05;;;6.70;99.90;;;;;;4870641;29;20080;-47